sensor_id;sensor_type;location;lat;lon;timestamp;temperature;humidity
421;DHT22;63667;49.046;8.468;2022-10-17T00:00:34;13.70;99.60
421;DHT22;63667;49.046;8.468;2022-10-17T00:03:00;13.70;99.60
421;DHT22;63667;49.046;8.468;2022-10-17T00:05:26;13.70;99.60
421;DHT22;63667;49.046;8.468;2022-10-17T00:07:53;13.70;99.60
421;DHT22;63667;49.046;8.468;2022-10-17T00:10:21;13.60;99.60
421;DHT22;63667;49.046;8.468;2022-10-17T00:12:47;13.50;99.60
421;DHT22;63667;49.046;8.468;2022-10-17T00:15:20;13.50;99.60
421;DHT22;63667;49.046;8.468;2022-10-17T00:17:47;13.50;99.60
421;DHT22;63667;49.046;8.468;2022-10-17T00:20:14;13.60;99.60
421;DHT22;63667;49.046;8.468;2022-10-17T00:22:41;13.50;99.60
421;DHT22;63667;49.046;8.468;2022-10-17T00:25:07;13.60;99.60
421;DHT22;63667;49.046;8.468;2022-10-17T00:27:35;13.50;99.60
421;DHT22;63667;49.046;8.468;2022-10-17T00:30:03;13.50;99.60
421;DHT22;63667;49.046;8.468;2022-10-17T00:32:32;13.50;99.60
421;DHT22;63667;49.046;8.468;2022-10-17T00:34:58;13.40;99.60
421;DHT22;63667;49.046;8.468;2022-10-17T00:37:24;13.40;99.60
421;DHT22;63667;49.046;8.468;2022-10-17T00:39:50;13.40;99.60
421;DHT22;63667;49.046;8.468;2022-10-17T00:42:17;13.30;99.60
421;DHT22;63667;49.046;8.468;2022-10-17T00:47:22;13.30;99.60
421;DHT22;63667;49.046;8.468;2022-10-17T00:49:48;13.30;99.60
421;DHT22;63667;49.046;8.468;2022-10-17T00:52:18;13.20;99.60
421;DHT22;63667;49.046;8.468;2022-10-17T00:54:50;13.20;99.60
421;DHT22;63667;49.046;8.468;2022-10-17T00:57:17;13.20;99.60
421;DHT22;63667;49.046;8.468;2022-10-17T00:59:47;13.20;99.60
421;DHT22;63667;49.046;8.468;2022-10-17T01:02:17;13.10;99.60
421;DHT22;63667;49.046;8.468;2022-10-17T01:04:45;13.20;99.60
421;DHT22;63667;49.046;8.468;2022-10-17T01:07:12;13.10;99.60
421;DHT22;63667;49.046;8.468;2022-10-17T01:09:39;13.10;99.60
421;DHT22;63667;49.046;8.468;2022-10-17T01:12:19;13.00;99.60
421;DHT22;63667;49.046;8.468;2022-10-17T01:14:54;13.00;99.60
421;DHT22;63667;49.046;8.468;2022-10-17T01:25:53;13.00;99.60
421;DHT22;63667;49.046;8.468;2022-10-17T01:31:10;13.00;99.60
421;DHT22;63667;49.046;8.468;2022-10-17T01:38:49;13.00;99.60
421;DHT22;63667;49.046;8.468;2022-10-17T01:44:09;12.80;99.60
421;DHT22;63667;49.046;8.468;2022-10-17T01:46:38;12.80;99.60
421;DHT22;63667;49.046;8.468;2022-10-17T01:49:06;12.90;99.60
421;DHT22;63667;49.046;8.468;2022-10-17T01:51:37;12.80;99.60
421;DHT22;63667;49.046;8.468;2022-10-17T01:54:18;12.80;99.60
421;DHT22;63667;49.046;8.468;2022-10-17T01:56:47;12.80;99.60
421;DHT22;63667;49.046;8.468;2022-10-17T01:59:22;12.70;99.60
421;DHT22;63667;49.046;8.468;2022-10-17T02:01:51;12.80;99.60
421;DHT22;63667;49.046;8.468;2022-10-17T02:04:18;12.70;99.60
421;DHT22;63667;49.046;8.468;2022-10-17T02:06:45;12.60;99.60
421;DHT22;63667;49.046;8.468;2022-10-17T02:14:50;12.70;99.60
421;DHT22;63667;49.046;8.468;2022-10-17T02:17:44;12.70;99.60
421;DHT22;63667;49.046;8.468;2022-10-17T02:23:30;12.60;99.60
421;DHT22;63667;49.046;8.468;2022-10-17T02:26:16;12.50;99.60
421;DHT22;63667;49.046;8.468;2022-10-17T02:28:53;12.50;99.60
421;DHT22;63667;49.046;8.468;2022-10-17T02:31:34;12.40;99.60
421;DHT22;63667;49.046;8.468;2022-10-17T02:36:53;12.40;99.60
421;DHT22;63667;49.046;8.468;2022-10-17T02:39:22;12.30;99.60
421;DHT22;63667;49.046;8.468;2022-10-17T02:41:50;12.30;99.60
421;DHT22;63667;49.046;8.468;2022-10-17T02:44:17;12.30;99.60
421;DHT22;63667;49.046;8.468;2022-10-17T02:46:48;12.40;99.60
421;DHT22;63667;49.046;8.468;2022-10-17T02:49:21;12.30;99.60
421;DHT22;63667;49.046;8.468;2022-10-17T02:52:01;12.30;99.60
421;DHT22;63667;49.046;8.468;2022-10-17T02:54:37;12.30;99.60
421;DHT22;63667;49.046;8.468;2022-10-17T02:59:54;12.30;99.60
421;DHT22;63667;49.046;8.468;2022-10-17T03:02:23;12.40;99.60
421;DHT22;63667;49.046;8.468;2022-10-17T03:04:49;12.30;99.60
421;DHT22;63667;49.046;8.468;2022-10-17T03:07:15;12.20;99.60
421;DHT22;63667;49.046;8.468;2022-10-17T03:09:41;12.20;99.60
421;DHT22;63667;49.046;8.468;2022-10-17T03:12:07;12.10;99.60
421;DHT22;63667;49.046;8.468;2022-10-17T03:14:34;12.20;99.60
421;DHT22;63667;49.046;8.468;2022-10-17T03:17:00;12.30;99.60
421;DHT22;63667;49.046;8.468;2022-10-17T03:19:26;12.40;99.60
421;DHT22;63667;49.046;8.468;2022-10-17T03:21:52;12.30;99.60
421;DHT22;63667;49.046;8.468;2022-10-17T03:24:19;12.30;99.60
421;DHT22;63667;49.046;8.468;2022-10-17T03:26:45;12.30;99.60
421;DHT22;63667;49.046;8.468;2022-10-17T03:29:12;12.10;99.60
421;DHT22;63667;49.046;8.468;2022-10-17T03:31:38;12.10;99.60
421;DHT22;63667;49.046;8.468;2022-10-17T03:34:04;12.00;99.60
421;DHT22;63667;49.046;8.468;2022-10-17T03:36:30;12.10;99.60
421;DHT22;63667;49.046;8.468;2022-10-17T03:38:57;12.00;99.60
421;DHT22;63667;49.046;8.468;2022-10-17T03:41:23;12.00;99.60
421;DHT22;63667;49.046;8.468;2022-10-17T03:43:51;12.20;99.60
421;DHT22;63667;49.046;8.468;2022-10-17T03:46:18;12.10;99.60
421;DHT22;63667;49.046;8.468;2022-10-17T03:48:44;12.10;99.60
421;DHT22;63667;49.046;8.468;2022-10-17T03:51:11;12.00;99.60
421;DHT22;63667;49.046;8.468;2022-10-17T03:53:37;12.00;99.60
421;DHT22;63667;49.046;8.468;2022-10-17T03:56:16;12.00;99.60
421;DHT22;63667;49.046;8.468;2022-10-17T03:58:43;11.90;99.60
421;DHT22;63667;49.046;8.468;2022-10-17T04:01:11;11.80;99.60
421;DHT22;63667;49.046;8.468;2022-10-17T04:03:39;11.80;99.60
421;DHT22;63667;49.046;8.468;2022-10-17T04:06:06;11.80;99.60
421;DHT22;63667;49.046;8.468;2022-10-17T04:08:33;11.90;99.60
421;DHT22;63667;49.046;8.468;2022-10-17T04:11:01;11.80;99.60
421;DHT22;63667;49.046;8.468;2022-10-17T04:13:27;11.80;99.60
421;DHT22;63667;49.046;8.468;2022-10-17T04:16:03;12.00;99.60
421;DHT22;63667;49.046;8.468;2022-10-17T04:18:30;12.20;99.60
421;DHT22;63667;49.046;8.468;2022-10-17T04:20:56;12.30;99.60
421;DHT22;63667;49.046;8.468;2022-10-17T04:23:22;12.30;99.60
421;DHT22;63667;49.046;8.468;2022-10-17T04:25:48;12.30;99.60
421;DHT22;63667;49.046;8.468;2022-10-17T04:28:15;12.30;99.60
421;DHT22;63667;49.046;8.468;2022-10-17T04:30:41;12.20;99.60
421;DHT22;63667;49.046;8.468;2022-10-17T04:33:07;12.20;99.60
421;DHT22;63667;49.046;8.468;2022-10-17T04:35:33;12.40;99.60
421;DHT22;63667;49.046;8.468;2022-10-17T04:38:00;12.30;99.60
421;DHT22;63667;49.046;8.468;2022-10-17T04:40:26;12.10;99.60
421;DHT22;63667;49.046;8.468;2022-10-17T04:42:52;12.10;99.60
421;DHT22;63667;49.046;8.468;2022-10-17T04:45:19;11.90;99.60
421;DHT22;63667;49.046;8.468;2022-10-17T04:47:45;12.00;99.60
421;DHT22;63667;49.046;8.468;2022-10-17T04:50:11;11.90;99.60
421;DHT22;63667;49.046;8.468;2022-10-17T04:52:37;11.80;99.60
421;DHT22;63667;49.046;8.468;2022-10-17T04:55:06;11.80;99.60
421;DHT22;63667;49.046;8.468;2022-10-17T04:57:36;11.80;99.60
421;DHT22;63667;49.046;8.468;2022-10-17T05:00:03;11.70;99.60
421;DHT22;63667;49.046;8.468;2022-10-17T05:02:29;11.70;99.60
421;DHT22;63667;49.046;8.468;2022-10-17T05:04:55;11.70;99.60
421;DHT22;63667;49.046;8.468;2022-10-17T05:07:21;11.70;99.60
421;DHT22;63667;49.046;8.468;2022-10-17T05:09:47;11.70;99.60
421;DHT22;63667;49.046;8.468;2022-10-17T05:12:13;11.90;99.60
421;DHT22;63667;49.046;8.468;2022-10-17T05:14:39;12.10;99.60
421;DHT22;63667;49.046;8.468;2022-10-17T05:17:05;11.90;99.60
421;DHT22;63667;49.046;8.468;2022-10-17T05:19:32;11.70;99.60
421;DHT22;63667;49.046;8.468;2022-10-17T05:21:58;11.70;99.60
421;DHT22;63667;49.046;8.468;2022-10-17T05:24:24;11.60;99.60
421;DHT22;63667;49.046;8.468;2022-10-17T05:26:50;11.60;99.60
421;DHT22;63667;49.046;8.468;2022-10-17T05:29:17;11.60;99.60
421;DHT22;63667;49.046;8.468;2022-10-17T05:31:46;11.60;99.60
421;DHT22;63667;49.046;8.468;2022-10-17T05:34:12;11.60;99.60
421;DHT22;63667;49.046;8.468;2022-10-17T05:36:38;11.70;99.60
421;DHT22;63667;49.046;8.468;2022-10-17T05:39:04;11.80;99.60
421;DHT22;63667;49.046;8.468;2022-10-17T05:41:31;11.80;99.60
421;DHT22;63667;49.046;8.468;2022-10-17T05:43:57;11.70;99.60
421;DHT22;63667;49.046;8.468;2022-10-17T05:46:23;11.60;99.60
421;DHT22;63667;49.046;8.468;2022-10-17T05:48:49;11.50;99.60
421;DHT22;63667;49.046;8.468;2022-10-17T05:51:16;11.50;99.60
421;DHT22;63667;49.046;8.468;2022-10-17T05:53:42;11.50;99.60
421;DHT22;63667;49.046;8.468;2022-10-17T05:56:10;11.40;99.60
421;DHT22;63667;49.046;8.468;2022-10-17T05:58:43;11.50;99.60
421;DHT22;63667;49.046;8.468;2022-10-17T06:01:11;11.50;99.60
421;DHT22;63667;49.046;8.468;2022-10-17T06:03:37;11.60;99.60
421;DHT22;63667;49.046;8.468;2022-10-17T06:06:11;11.60;99.60
421;DHT22;63667;49.046;8.468;2022-10-17T06:08:38;11.70;99.60
421;DHT22;63667;49.046;8.468;2022-10-17T06:11:05;11.80;99.60
421;DHT22;63667;49.046;8.468;2022-10-17T06:13:31;11.80;99.60
421;DHT22;63667;49.046;8.468;2022-10-17T06:15:57;11.80;99.60
421;DHT22;63667;49.046;8.468;2022-10-17T06:18:24;11.70;99.60
421;DHT22;63667;49.046;8.468;2022-10-17T06:20:51;11.70;99.60
421;DHT22;63667;49.046;8.468;2022-10-17T06:23:18;11.60;99.60
421;DHT22;63667;49.046;8.468;2022-10-17T06:25:44;11.60;99.60
421;DHT22;63667;49.046;8.468;2022-10-17T06:28:10;11.60;99.60
421;DHT22;63667;49.046;8.468;2022-10-17T06:30:39;11.60;99.60
421;DHT22;63667;49.046;8.468;2022-10-17T06:33:05;11.80;99.60
421;DHT22;63667;49.046;8.468;2022-10-17T06:35:31;11.90;99.60
421;DHT22;63667;49.046;8.468;2022-10-17T06:37:58;11.90;99.60
421;DHT22;63667;49.046;8.468;2022-10-17T06:40:24;11.80;99.60
421;DHT22;63667;49.046;8.468;2022-10-17T06:42:50;12.00;99.60
421;DHT22;63667;49.046;8.468;2022-10-17T06:45:16;12.20;99.60
421;DHT22;63667;49.046;8.468;2022-10-17T06:47:42;12.30;99.60
421;DHT22;63667;49.046;8.468;2022-10-17T06:50:08;12.60;99.60
421;DHT22;63667;49.046;8.468;2022-10-17T06:52:34;12.60;99.60
421;DHT22;63667;49.046;8.468;2022-10-17T06:55:01;12.60;99.60
421;DHT22;63667;49.046;8.468;2022-10-17T06:57:27;12.90;99.60
421;DHT22;63667;49.046;8.468;2022-10-17T06:59:53;13.00;99.60
421;DHT22;63667;49.046;8.468;2022-10-17T07:02:20;13.00;99.60
421;DHT22;63667;49.046;8.468;2022-10-17T07:04:49;13.00;99.60
421;DHT22;63667;49.046;8.468;2022-10-17T07:07:15;13.10;99.60
421;DHT22;63667;49.046;8.468;2022-10-17T07:09:41;13.20;99.60
421;DHT22;63667;49.046;8.468;2022-10-17T07:12:07;13.30;99.60
421;DHT22;63667;49.046;8.468;2022-10-17T07:14:34;13.50;99.60
421;DHT22;63667;49.046;8.468;2022-10-17T07:17:00;13.50;99.60
421;DHT22;63667;49.046;8.468;2022-10-17T07:19:27;13.60;99.60
421;DHT22;63667;49.046;8.468;2022-10-17T07:21:53;13.80;99.60
421;DHT22;63667;49.046;8.468;2022-10-17T07:24:19;13.80;99.60
421;DHT22;63667;49.046;8.468;2022-10-17T07:26:45;14.10;99.60
421;DHT22;63667;49.046;8.468;2022-10-17T07:29:12;14.20;99.60
421;DHT22;63667;49.046;8.468;2022-10-17T07:31:38;14.50;99.60
421;DHT22;63667;49.046;8.468;2022-10-17T07:34:04;14.50;99.60
421;DHT22;63667;49.046;8.468;2022-10-17T07:36:30;14.70;99.60
421;DHT22;63667;49.046;8.468;2022-10-17T07:38:56;14.90;99.60
421;DHT22;63667;49.046;8.468;2022-10-17T07:41:23;15.00;99.60
421;DHT22;63667;49.046;8.468;2022-10-17T07:43:49;15.20;99.60
421;DHT22;63667;49.046;8.468;2022-10-17T07:46:15;15.40;99.60
421;DHT22;63667;49.046;8.468;2022-10-17T07:48:41;15.30;99.60
421;DHT22;63667;49.046;8.468;2022-10-17T07:51:08;15.50;99.60
421;DHT22;63667;49.046;8.468;2022-10-17T07:53:37;15.60;99.60
421;DHT22;63667;49.046;8.468;2022-10-17T07:56:07;15.60;99.60
421;DHT22;63667;49.046;8.468;2022-10-17T07:58:34;15.70;99.60
421;DHT22;63667;49.046;8.468;2022-10-17T08:01:03;15.70;99.60
421;DHT22;63667;49.046;8.468;2022-10-17T08:03:29;15.90;99.60
421;DHT22;63667;49.046;8.468;2022-10-17T08:06:00;16.10;99.60
421;DHT22;63667;49.046;8.468;2022-10-17T08:08:26;16.20;99.60
421;DHT22;63667;49.046;8.468;2022-10-17T08:10:54;16.30;99.60
421;DHT22;63667;49.046;8.468;2022-10-17T08:13:21;16.50;99.60
421;DHT22;63667;49.046;8.468;2022-10-17T08:15:48;16.60;99.60
421;DHT22;63667;49.046;8.468;2022-10-17T08:18:15;16.90;99.60
421;DHT22;63667;49.046;8.468;2022-10-17T08:20:41;17.00;99.60
421;DHT22;63667;49.046;8.468;2022-10-17T08:23:07;17.10;99.60
421;DHT22;63667;49.046;8.468;2022-10-17T08:25:34;17.30;99.60
421;DHT22;63667;49.046;8.468;2022-10-17T08:28:02;17.40;99.60
421;DHT22;63667;49.046;8.468;2022-10-17T08:30:29;17.50;99.60
421;DHT22;63667;49.046;8.468;2022-10-17T08:32:55;17.60;99.60
421;DHT22;63667;49.046;8.468;2022-10-17T08:35:22;17.80;99.60
421;DHT22;63667;49.046;8.468;2022-10-17T08:37:48;17.80;99.60
421;DHT22;63667;49.046;8.468;2022-10-17T08:40:25;17.90;99.60
421;DHT22;63667;49.046;8.468;2022-10-17T08:43:15;18.00;99.60
421;DHT22;63667;49.046;8.468;2022-10-17T08:45:55;18.10;99.60
421;DHT22;63667;49.046;8.468;2022-10-17T08:48:27;18.20;99.60
421;DHT22;63667;49.046;8.468;2022-10-17T08:53:54;18.30;99.60
421;DHT22;63667;49.046;8.468;2022-10-17T08:56:50;18.40;99.60
421;DHT22;63667;49.046;8.468;2022-10-17T08:59:24;18.80;99.60
421;DHT22;63667;49.046;8.468;2022-10-17T09:13:04;19.20;99.60
421;DHT22;63667;49.046;8.468;2022-10-17T09:15:43;19.10;99.60
421;DHT22;63667;49.046;8.468;2022-10-17T09:21:01;19.50;99.60
421;DHT22;63667;49.046;8.468;2022-10-17T09:23:46;19.50;99.60
421;DHT22;63667;49.046;8.468;2022-10-17T09:26:14;19.70;99.60
421;DHT22;63667;49.046;8.468;2022-10-17T09:28:41;19.70;99.60
421;DHT22;63667;49.046;8.468;2022-10-17T09:33:46;19.60;99.60
421;DHT22;63667;49.046;8.468;2022-10-17T09:36:16;19.70;99.60
421;DHT22;63667;49.046;8.468;2022-10-17T09:38:48;19.90;99.60
421;DHT22;63667;49.046;8.468;2022-10-17T09:41:22;19.90;99.60
421;DHT22;63667;49.046;8.468;2022-10-17T09:43:52;19.80;99.60
421;DHT22;63667;49.046;8.468;2022-10-17T09:46:37;19.80;99.60
421;DHT22;63667;49.046;8.468;2022-10-17T09:49:17;19.70;99.60
421;DHT22;63667;49.046;8.468;2022-10-17T09:51:45;19.80;99.60
421;DHT22;63667;49.046;8.468;2022-10-17T09:54:46;19.90;99.60
421;DHT22;63667;49.046;8.468;2022-10-17T09:57:14;20.10;99.60
421;DHT22;63667;49.046;8.468;2022-10-17T09:59:44;20.30;99.60
421;DHT22;63667;49.046;8.468;2022-10-17T10:02:22;20.20;99.60
421;DHT22;63667;49.046;8.468;2022-10-17T10:07:27;20.20;99.60
421;DHT22;63667;49.046;8.468;2022-10-17T10:09:54;20.40;99.60
421;DHT22;63667;49.046;8.468;2022-10-17T10:14:51;20.70;99.60
421;DHT22;63667;49.046;8.468;2022-10-17T10:17:44;20.90;99.60
421;DHT22;63667;49.046;8.468;2022-10-17T10:20:31;21.00;99.60
421;DHT22;63667;49.046;8.468;2022-10-17T10:23:15;21.20;99.60
421;DHT22;63667;49.046;8.468;2022-10-17T10:25:53;21.40;99.60
421;DHT22;63667;49.046;8.468;2022-10-17T10:28:24;21.30;99.60
421;DHT22;63667;49.046;8.468;2022-10-17T10:30:51;21.40;99.60
421;DHT22;63667;49.046;8.468;2022-10-17T10:33:19;21.70;99.60
421;DHT22;63667;49.046;8.468;2022-10-17T10:35:58;21.90;99.60
421;DHT22;63667;49.046;8.468;2022-10-17T10:38:29;22.10;99.60
421;DHT22;63667;49.046;8.468;2022-10-17T10:41:02;22.00;99.60
421;DHT22;63667;49.046;8.468;2022-10-17T10:43:37;22.30;99.60
421;DHT22;63667;49.046;8.468;2022-10-17T10:46:15;22.40;99.60
421;DHT22;63667;49.046;8.468;2022-10-17T10:54:13;23.30;99.60
421;DHT22;63667;49.046;8.468;2022-10-17T10:56:45;23.10;99.60
421;DHT22;63667;49.046;8.468;2022-10-17T10:59:23;23.10;99.60
421;DHT22;63667;49.046;8.468;2022-10-17T11:02:23;23.10;99.60
421;DHT22;63667;49.046;8.468;2022-10-17T11:05:03;23.20;99.60
421;DHT22;63667;49.046;8.468;2022-10-17T11:07:45;23.50;99.60
421;DHT22;63667;49.046;8.468;2022-10-17T11:10:25;23.80;99.60
421;DHT22;63667;49.046;8.468;2022-10-17T11:13:04;24.20;99.60
421;DHT22;63667;49.046;8.468;2022-10-17T11:18:07;25.30;99.60
421;DHT22;63667;49.046;8.468;2022-10-17T11:23:39;26.00;99.60
421;DHT22;63667;49.046;8.468;2022-10-17T11:26:20;26.10;99.60
421;DHT22;63667;49.046;8.468;2022-10-17T11:28:56;26.10;99.60
421;DHT22;63667;49.046;8.468;2022-10-17T11:31:46;26.20;99.60
421;DHT22;63667;49.046;8.468;2022-10-17T11:34:19;25.90;99.60
421;DHT22;63667;49.046;8.468;2022-10-17T11:36:55;25.80;99.60
421;DHT22;63667;49.046;8.468;2022-10-17T11:39:30;25.60;99.60
421;DHT22;63667;49.046;8.468;2022-10-17T11:42:06;25.80;99.60
421;DHT22;63667;49.046;8.468;2022-10-17T11:44:39;25.50;99.60
421;DHT22;63667;49.046;8.468;2022-10-17T11:49:43;25.50;99.60
421;DHT22;63667;49.046;8.468;2022-10-17T11:54:59;25.40;99.60
421;DHT22;63667;49.046;8.468;2022-10-17T12:11:06;26.90;99.60
421;DHT22;63667;49.046;8.468;2022-10-17T12:21:27;26.40;99.60
421;DHT22;63667;49.046;8.468;2022-10-17T12:23:54;26.40;99.60
421;DHT22;63667;49.046;8.468;2022-10-17T12:26:28;26.40;99.60
421;DHT22;63667;49.046;8.468;2022-10-17T12:28:55;26.20;99.60
421;DHT22;63667;49.046;8.468;2022-10-17T12:31:24;26.30;99.60
421;DHT22;63667;49.046;8.468;2022-10-17T12:33:53;26.50;99.60
421;DHT22;63667;49.046;8.468;2022-10-17T12:52:21;27.10;99.60
421;DHT22;63667;49.046;8.468;2022-10-17T12:54:55;27.00;99.60
421;DHT22;63667;49.046;8.468;2022-10-17T12:57:32;26.70;99.60
421;DHT22;63667;49.046;8.468;2022-10-17T13:00:11;26.90;99.60
421;DHT22;63667;49.046;8.468;2022-10-17T13:02:39;26.80;99.60
421;DHT22;63667;49.046;8.468;2022-10-17T13:05:13;26.90;99.60
421;DHT22;63667;49.046;8.468;2022-10-17T13:07:42;27.40;99.60
421;DHT22;63667;49.046;8.468;2022-10-17T13:10:23;28.20;99.60
421;DHT22;63667;49.046;8.468;2022-10-17T13:12:53;28.50;99.60
421;DHT22;63667;49.046;8.468;2022-10-17T13:15:20;28.50;99.60
421;DHT22;63667;49.046;8.468;2022-10-17T13:17:55;29.30;99.60
421;DHT22;63667;49.046;8.468;2022-10-17T13:20:24;29.30;99.60
421;DHT22;63667;49.046;8.468;2022-10-17T13:22:54;29.70;99.60
421;DHT22;63667;49.046;8.468;2022-10-17T13:25:22;30.10;99.60
421;DHT22;63667;49.046;8.468;2022-10-17T13:27:49;29.70;99.60
421;DHT22;63667;49.046;8.468;2022-10-17T13:30:34;30.40;99.60
421;DHT22;63667;49.046;8.468;2022-10-17T13:33:01;31.40;99.60
421;DHT22;63667;49.046;8.468;2022-10-17T13:35:30;31.10;99.60
421;DHT22;63667;49.046;8.468;2022-10-17T13:37:59;30.20;99.60
421;DHT22;63667;49.046;8.468;2022-10-17T13:40:28;30.60;99.60
421;DHT22;63667;49.046;8.468;2022-10-17T13:42:57;30.10;99.60
421;DHT22;63667;49.046;8.468;2022-10-17T13:45:33;29.30;99.60
421;DHT22;63667;49.046;8.468;2022-10-17T13:48:03;29.70;99.60
421;DHT22;63667;49.046;8.468;2022-10-17T13:50:33;29.70;99.60
421;DHT22;63667;49.046;8.468;2022-10-17T13:55:37;29.10;99.60
421;DHT22;63667;49.046;8.468;2022-10-17T13:58:16;29.20;99.60
421;DHT22;63667;49.046;8.468;2022-10-17T14:00:44;28.60;99.60
421;DHT22;63667;49.046;8.468;2022-10-17T14:03:10;28.50;99.60
421;DHT22;63667;49.046;8.468;2022-10-17T14:08:33;27.70;99.60
421;DHT22;63667;49.046;8.468;2022-10-17T14:11:00;27.80;99.60
421;DHT22;63667;49.046;8.468;2022-10-17T14:13:28;27.00;99.60
421;DHT22;63667;49.046;8.468;2022-10-17T14:16:01;26.70;99.60
421;DHT22;63667;49.046;8.468;2022-10-17T14:18:34;27.00;99.60
421;DHT22;63667;49.046;8.468;2022-10-17T14:21:01;26.80;99.60
421;DHT22;63667;49.046;8.468;2022-10-17T14:23:43;26.80;99.60
421;DHT22;63667;49.046;8.468;2022-10-17T14:26:27;26.60;99.60
421;DHT22;63667;49.046;8.468;2022-10-17T14:29:04;26.50;99.60
421;DHT22;63667;49.046;8.468;2022-10-17T14:31:34;26.60;99.60
421;DHT22;63667;49.046;8.468;2022-10-17T14:34:03;26.50;99.60
421;DHT22;63667;49.046;8.468;2022-10-17T14:36:37;26.30;99.60
421;DHT22;63667;49.046;8.468;2022-10-17T14:39:06;26.40;99.60
421;DHT22;63667;49.046;8.468;2022-10-17T14:41:35;26.50;99.60
421;DHT22;63667;49.046;8.468;2022-10-17T14:44:06;26.60;99.60
421;DHT22;63667;49.046;8.468;2022-10-17T14:46:36;26.40;99.60
421;DHT22;63667;49.046;8.468;2022-10-17T14:49:12;26.40;99.60
421;DHT22;63667;49.046;8.468;2022-10-17T14:54:36;26.10;99.60
421;DHT22;63667;49.046;8.468;2022-10-17T14:57:27;26.10;99.60
421;DHT22;63667;49.046;8.468;2022-10-17T14:59:55;26.00;99.60
421;DHT22;63667;49.046;8.468;2022-10-17T15:02:24;25.90;99.60
421;DHT22;63667;49.046;8.468;2022-10-17T15:04:51;26.00;99.60
421;DHT22;63667;49.046;8.468;2022-10-17T15:07:18;25.80;99.60
421;DHT22;63667;49.046;8.468;2022-10-17T15:09:47;25.60;99.60
421;DHT22;63667;49.046;8.468;2022-10-17T15:12:17;25.50;99.60
421;DHT22;63667;49.046;8.468;2022-10-17T15:14:44;25.50;99.60
421;DHT22;63667;49.046;8.468;2022-10-17T15:17:25;25.50;99.60
421;DHT22;63667;49.046;8.468;2022-10-17T15:19:52;25.40;99.60
421;DHT22;63667;49.046;8.468;2022-10-17T15:22:19;25.50;99.60
421;DHT22;63667;49.046;8.468;2022-10-17T15:24:46;25.30;99.60
421;DHT22;63667;49.046;8.468;2022-10-17T15:27:19;25.20;99.60
421;DHT22;63667;49.046;8.468;2022-10-17T15:29:45;25.20;99.60
421;DHT22;63667;49.046;8.468;2022-10-17T15:32:12;25.10;99.60
421;DHT22;63667;49.046;8.468;2022-10-17T15:34:38;25.10;99.60
421;DHT22;63667;49.046;8.468;2022-10-17T15:37:06;25.10;99.60
421;DHT22;63667;49.046;8.468;2022-10-17T15:39:39;25.10;99.60
421;DHT22;63667;49.046;8.468;2022-10-17T15:42:09;24.90;99.60
421;DHT22;63667;49.046;8.468;2022-10-17T15:44:36;24.80;99.60
421;DHT22;63667;49.046;8.468;2022-10-17T15:47:02;24.70;99.60
421;DHT22;63667;49.046;8.468;2022-10-17T15:49:29;24.60;99.60
421;DHT22;63667;49.046;8.468;2022-10-17T15:51:55;24.40;99.60
421;DHT22;63667;49.046;8.468;2022-10-17T15:54:21;24.40;99.60
421;DHT22;63667;49.046;8.468;2022-10-17T15:56:52;24.40;99.60
421;DHT22;63667;49.046;8.468;2022-10-17T15:59:22;24.40;99.60
421;DHT22;63667;49.046;8.468;2022-10-17T16:01:50;24.30;99.60
421;DHT22;63667;49.046;8.468;2022-10-17T16:04:19;24.20;99.60
421;DHT22;63667;49.046;8.468;2022-10-17T16:06:48;24.00;99.60
421;DHT22;63667;49.046;8.468;2022-10-17T16:09:14;23.90;99.60
421;DHT22;63667;49.046;8.468;2022-10-17T16:11:41;23.90;99.60
421;DHT22;63667;49.046;8.468;2022-10-17T16:14:13;23.60;99.60
421;DHT22;63667;49.046;8.468;2022-10-17T16:16:40;23.50;99.60
421;DHT22;63667;49.046;8.468;2022-10-17T16:19:07;23.10;99.60
421;DHT22;63667;49.046;8.468;2022-10-17T16:21:36;22.80;99.60
421;DHT22;63667;49.046;8.468;2022-10-17T16:24:04;22.50;99.60
421;DHT22;63667;49.046;8.468;2022-10-17T16:26:30;22.20;99.60
421;DHT22;63667;49.046;8.468;2022-10-17T16:28:57;22.00;99.60
421;DHT22;63667;49.046;8.468;2022-10-17T16:31:32;21.90;99.60
421;DHT22;63667;49.046;8.468;2022-10-17T16:34:00;21.80;99.60
421;DHT22;63667;49.046;8.468;2022-10-17T16:36:27;21.80;99.60
421;DHT22;63667;49.046;8.468;2022-10-17T16:38:54;21.60;99.60
421;DHT22;63667;49.046;8.468;2022-10-17T16:41:23;21.70;99.60
421;DHT22;63667;49.046;8.468;2022-10-17T16:43:50;21.50;99.60
421;DHT22;63667;49.046;8.468;2022-10-17T16:46:18;21.40;99.60
421;DHT22;63667;49.046;8.468;2022-10-17T16:48:45;21.20;99.60
421;DHT22;63667;49.046;8.468;2022-10-17T16:51:14;21.20;99.60
421;DHT22;63667;49.046;8.468;2022-10-17T16:53:41;21.00;99.60
421;DHT22;63667;49.046;8.468;2022-10-17T16:56:14;20.80;99.60
421;DHT22;63667;49.046;8.468;2022-10-17T16:58:44;20.60;99.60
421;DHT22;63667;49.046;8.468;2022-10-17T17:01:16;20.50;99.60
421;DHT22;63667;49.046;8.468;2022-10-17T17:03:45;20.30;99.60
421;DHT22;63667;49.046;8.468;2022-10-17T17:06:24;20.20;99.60
421;DHT22;63667;49.046;8.468;2022-10-17T17:08:52;20.10;99.60
421;DHT22;63667;49.046;8.468;2022-10-17T17:11:20;20.00;99.60
421;DHT22;63667;49.046;8.468;2022-10-17T17:13:47;20.00;99.60
421;DHT22;63667;49.046;8.468;2022-10-17T17:16:19;19.90;99.60
421;DHT22;63667;49.046;8.468;2022-10-17T17:19:03;19.70;99.60
421;DHT22;63667;49.046;8.468;2022-10-17T17:21:30;19.60;99.60
421;DHT22;63667;49.046;8.468;2022-10-17T17:23:58;19.50;99.60
421;DHT22;63667;49.046;8.468;2022-10-17T17:26:26;19.30;99.60
421;DHT22;63667;49.046;8.468;2022-10-17T17:28:52;19.30;99.60
421;DHT22;63667;49.046;8.468;2022-10-17T17:31:22;19.40;99.60
421;DHT22;63667;49.046;8.468;2022-10-17T17:33:49;19.50;99.60
421;DHT22;63667;49.046;8.468;2022-10-17T17:36:18;19.30;99.60
421;DHT22;63667;49.046;8.468;2022-10-17T17:38:46;19.20;99.60
421;DHT22;63667;49.046;8.468;2022-10-17T17:41:15;19.20;99.60
421;DHT22;63667;49.046;8.468;2022-10-17T17:43:43;19.30;99.60
421;DHT22;63667;49.046;8.468;2022-10-17T17:46:10;19.10;99.60
421;DHT22;63667;49.046;8.468;2022-10-17T17:48:38;19.00;99.60
421;DHT22;63667;49.046;8.468;2022-10-17T17:51:07;18.90;99.60
421;DHT22;63667;49.046;8.468;2022-10-17T17:53:34;18.90;99.60
421;DHT22;63667;49.046;8.468;2022-10-17T17:56:10;18.80;99.60
421;DHT22;63667;49.046;8.468;2022-10-17T17:58:36;18.80;99.60
421;DHT22;63667;49.046;8.468;2022-10-17T18:01:14;18.80;99.60
421;DHT22;63667;49.046;8.468;2022-10-17T18:03:44;18.90;99.60
421;DHT22;63667;49.046;8.468;2022-10-17T18:06:11;18.70;99.60
421;DHT22;63667;49.046;8.468;2022-10-17T18:08:37;18.80;99.60
421;DHT22;63667;49.046;8.468;2022-10-17T18:11:08;18.80;99.60
421;DHT22;63667;49.046;8.468;2022-10-17T18:13:35;18.70;99.60
421;DHT22;63667;49.046;8.468;2022-10-17T18:16:02;18.60;99.60
421;DHT22;63667;49.046;8.468;2022-10-17T18:18:29;18.50;99.60
421;DHT22;63667;49.046;8.468;2022-10-17T18:20:55;18.50;99.60